Terminal Aerodrome Forecast
Issued by NWS Sterling, VA

Current Version | Previous Version | Text Only | Print | Product List | Glossary Off
Versions: 1 2 3 4 5 6 7 8 9 10 11 12 13 14 15 16 17 18 19 20 21

000
FTUS41 KLWX 182039 AAA
TAFIAD
TAF AMD
KIAD 182039Z 1821/1924 16009KT P6SM SKC
     FM182200 18005KT P6SM SCT050
     FM190000 12005KT P6SM BKN050
     FM190700 19005KT P6SM BKN100
     FM191200 27015G25KT P6SM BKN100
     FM191600 30022G34KT P6SM BKN050=

USA.gov is the U.S. government's official web portal to all federal, state and local government web resources and services.